Terminal Aerodrome Forecast
Issued by NWS

Home | Current Version | Previous Version | Text Only | Print | Product List | Glossary On
Versions: 1 2 3 4 5 6 7 8 9 10 11 12 13 14 15 16
000
FTUS43 KDLH 301137
TAFHYR
TAF
KHYR 301137Z 3012/3112 26008KT P6SM SKC
     FM301600 27010G18KT P6SM SCT080
     FM302000 28012G23KT P6SM VCSH BKN060
     FM310100 27008KT P6SM SCT060=

USA.gov is the U.S. government's official web portal to all federal, state and local government web resources and services.